This is the latest recevied weather packets stored in our database for station/object KC0AFB. If no packets are shown the sender has not sent any weather packets the latest 10 day(s).
| Time | Temp. | Humidity | Pressure | Rain* | Wind** | Luminosity | Snow |
|---|---|---|---|---|---|---|---|
| 1788140048 | 61° F | 89% | 757.8 mmHg | 0 in | - | 0 W/m² | - |
| 1788139742 | 62° F | 90% | 757.8 mmHg | 0 in | - | 0 W/m² | - |
| 1788139437 | 62° F | 90% | 757.7 mmHg | 0.05 in | - | 1 W/m² | - |
| 1788139132 | 62° F | 91% | 757.6 mmHg | 0.05 in | - | 1 W/m² | - |
| 1788138826 | 62° F | 92% | 757.5 mmHg | 0 in | - | 1 W/m² | - |
| 1788138517 | 62° F | 93% | 757.8 mmHg | 0.14 in | - | 0 W/m² | - |
| 1788138216 | 62° F | 93% | 758 mmHg | 0.19 in | - | 0 W/m² | - |
| 1788137912 | 62° F | 94% | 757.7 mmHg | 0.24 in | - | 0 W/m² | - |
| 1788137608 | 63° F | 94% | 757.7 mmHg | 0.47 in | - | 0 W/m² | - |
| 1788137308 | 64° F | 93% | 757.9 mmHg | 1.84 in | - | 0 W/m² | - |
| 1788137004 | 64° F | 93% | 757.9 mmHg | 3 in | - | 0 W/m² | - |
| 1788136699 | 65° F | 92% | 757.6 mmHg | 1.79 in | - | 0 W/m² | - |
| 1788136396 | 68° F | 84% | 757.6 mmHg | 0 in | - | 0 W/m² | - |
| 1788136095 | 70° F | 81% | 757.2 mmHg | 0 in | - | 0 W/m² | - |
| 1788135788 | 75° F | 83% | 756.7 mmHg | 0 in | - | 0 W/m² | - |
| 1788135484 | 75° F | 84% | 755.5 mmHg | 0 in | - | 0 W/m² | - |
| 1788135180 | 75° F | 84% | 755.2 mmHg | 0 in | - | 2 W/m² | - |
| 1788134877 | 76° F | 83% | 755.1 mmHg | 0 in | - | 3 W/m² | - |
| 1788134577 | 76° F | 83% | 755 mmHg | 0 in | - | 5 W/m² | - |
| 1788134275 | 76° F | 82% | 754.9 mmHg | 0 in | - | 8 W/m² | - |
| 1788133970 | 77° F | 82% | 754.9 mmHg | 0 in | - | 12 W/m² | - |
| 1788133665 | 77° F | 81% | 754.7 mmHg | 0 in | - | 14 W/m² | - |
| 1788133361 | 77° F | 81% | 754.7 mmHg | 0 in | - | 17 W/m² | - |
| 1788133057 | 77° F | 81% | 754.8 mmHg | 0 in | - | 20 W/m² | - |
| 1788132752 | 77° F | 80% | 754.9 mmHg | 0 in | - | 29 W/m² | - |
* Rain latest hour (hover to see other rain measurements)
** Current wind speed in m/s (hover to see current wind gust speed)